Saldus, Latvia

11:02 AM EEST on September 27, 2016 (GMT +0300)
Ventspils International A | | Change Station

Elev 20 ft 57.36 °N, 21.54 °E | Updated 12 minutes ago

Clear
Clear
55 °F
Feels Like 55 °F
N
4
Wind Variable Wind from SSE

Today
High -- | Low -- °F
--% Chance of Precip.
Yesterday
High -- | Low -- °F
Precip. -- in
Pressure 30.36 in
Visibility -9999.0 miles
Clouds
Dew Point 55 °F
Humidity 100%
Rainfall 0.00 in
Snow Depth Not available.
7:25 AM 7:14 PM
Waning Crescent, 13% visible
METAR EVVA 270750Z AUTO 16003KT CAVOK 13/13 Q1028
Pressure 30.36 in
Visibility -9999.0 miles
Clouds
Dew Point 55 °F
Humidity 100%
Rainfall 0.00 in
Snow Depth Not available.
7:25 AM 7:14 PM
Waning Crescent, 13% visible
METAR EVVA 270750Z AUTO 16003KT CAVOK 13/13 Q1028

10-Day Weather Forecast

×

Almanac

Astronomy

Sep. 27, 2016 Rise Set
Actual Time
Civil Twilight
Nautical Twilight
Astronomical Twilight
Moon
Length of Visible Light
Length of Day
Tomorrow will be .
, % of the Moon is Illuminated

Today's Extremes

Country Highs Country Lows

Community

WunderPhotos

Upload Photos

1,942,040 photos uploaded!

WunderBlog® & News

Nearby

Air Quality

  Air Quality AQ Index Pollutant
Not available.

Snow Depth

Station Depth Elevation

Earthquake Activity

City Distance Mag. Time & Date
Minimum magnitude displayed is 2.5.

Coastal Water Temperatures

Place Temperature

Stations

Nearby Weather Stations

Station Location Temp. Windchill Dew Point Humidity Wind Precip. Elev Updated Type